Time;durP1;ratioP1;P1;durP2;ratioP2;P2;SDS_P1;SDS_P2;PMS_P1;PMS_P2;Temp;Humidity;BMP_temperature;BMP_pressure;BME280_temperature;BME280_humidity;BME280_pressure;Samples;Min_cycle;Max_cycle;Signal;HPM_P1;HPM_P2
2022/03/03 00:01:27;;;;;;;99.60;43.13;;;-0.10;99.90;;;;;;6128549;23;20021;-88
2022/03/03 00:03:55;;;;;;;97.82;43.50;;;-0.10;99.90;;;;;;6129103;23;20021;-89
2022/03/03 00:06:21;;;;;;;102.78;44.28;;;-0.10;99.90;;;;;;6104689;23;20095;-88
2022/03/03 00:08:47;;;;;;;100.75;44.33;;;0.00;99.90;;;;;;6127994;23;20057;-87
2022/03/03 00:11:25;;;;;;;;;;;;;;;;;;;;;
2022/03/03 00:13:51;;;;;;;98.60;43.17;;;-0.10;99.90;;;;;;6152925;23;20085;-88
2022/03/03 00:16:39;;;;;;;;;;;;;;;;;;;;;
2022/03/03 00:19:07;;;;;;;95.40;42.88;;;-0.10;99.90;;;;;;6154072;23;20022;-89
2022/03/03 00:21:51;;;;;;;102.75;43.95;;;-0.20;99.90;;;;;;6128288;23;20092;-89
2022/03/03 00:24:19;;;;;;;97.75;44.55;;;-0.20;99.90;;;;;;6153986;23;20053;-88
2022/03/03 00:26:50;;;;;;;107.82;46.20;;;-0.20;99.90;;;;;;6129273;23;20022;-88
2022/03/03 00:29:20;;;;;;;96.18;44.42;;;-0.20;99.90;;;;;;6105588;23;20018;-88
2022/03/03 00:32:09;;;;;;;;;;;;;;;;;;;;;
2022/03/03 00:38:25;;;;;;;;;;;;;;;;;;;;;
2022/03/03 00:41:06;;;;;;;100.07;42.28;;;-0.20;99.90;;;;;;6153300;23;20022;-88
2022/03/03 00:44:10;;;;;;;;;;;;;;;;;;;;;
2022/03/03 00:46:55;;;;;;;103.82;42.92;;;-0.30;99.90;;;;;;6153631;23;20017;-88
2022/03/03 00:49:34;;;;;;;94.93;41.53;;;-0.40;99.90;;;;;;6129334;23;20128;-88
2022/03/03 00:52:25;;;;;;;97.78;42.33;;;-0.50;99.90;;;;;;6106053;23;20017;-88
2022/03/03 00:55:29;;;;;;;95.68;41.75;;;-0.60;99.90;;;;;;6128414;23;20065;-88
2022/03/03 00:58:10;;;;;;;101.03;42.83;;;-0.50;99.90;;;;;;6127444;23;20100;-88
2022/03/03 01:01:08;;;;;;;;;;;;;;;;;;;;;
2022/03/03 01:03:55;;;;;;;;;;;;;;;;;;;;;
2022/03/03 01:06:23;;;;;;;100.38;42.00;;;-0.70;99.90;;;;;;6152951;23;20025;-86
2022/03/03 01:09:10;;;;;;;;;;;;;;;;;;;;;
2022/03/03 01:11:36;;;;;;;96.95;40.60;;;-0.80;99.90;;;;;;6152887;23;20017;-88
2022/03/03 01:14:02;;;;;;;101.05;43.10;;;-0.90;99.90;;;;;;6104340;23;20464;-86
2022/03/03 01:16:28;;;;;;;95.90;43.17;;;-0.80;99.90;;;;;;6152996;23;20017;-87
2022/03/03 01:18:54;;;;;;;97.93;42.25;;;-0.90;99.90;;;;;;6127750;23;20052;-86
2022/03/03 01:21:27;;;;;;;94.78;40.47;;;-0.90;99.90;;;;;;6128504;23;20017;-87
2022/03/03 01:23:58;;;;;;;91.82;40.55;;;-0.90;99.90;;;;;;6128027;23;20326;-87
2022/03/03 01:26:33;;;;;;;90.95;39.88;;;-1.10;99.90;;;;;;6108185;23;20039;-87
2022/03/03 01:28:59;;;;;;;98.00;43.47;;;-1.10;99.90;;;;;;6127769;23;20017;-88
2022/03/03 01:31:42;;;;;;;93.75;40.30;;;-1.20;99.90;;;;;;6127884;23;20018;-87
2022/03/03 01:34:12;;;;;;;100.03;42.15;;;-1.20;99.90;;;;;;6105142;23;20357;-87
2022/03/03 01:36:41;;;;;;;93.80;42.00;;;-1.10;99.90;;;;;;6104477;23;20052;-88
2022/03/03 01:39:09;;;;;;;98.00;41.88;;;-1.20;99.90;;;;;;6127622;23;20013;-87
2022/03/03 01:41:35;;;;;;;103.10;42.03;;;-1.20;99.90;;;;;;6080847;23;20349;-87
2022/03/03 01:44:09;;;;;;;97.65;41.22;;;-1.20;99.90;;;;;;6152548;23;20454;-87
2022/03/03 01:47:01;;;;;;;95.50;41.25;;;-1.10;99.90;;;;;;6128085;23;20021;-87
2022/03/03 01:49:27;;;;;;;90.00;38.60;;;-1.00;99.90;;;;;;6151522;23;20014;-88
2022/03/03 01:51:55;;;;;;;92.00;42.13;;;-1.00;99.90;;;;;;6127681;23;20017;-86
2022/03/03 01:54:31;;;;;;;99.43;42.53;;;-0.90;99.90;;;;;;6105136;23;20445;-86
2022/03/03 01:56:57;;;;;;;96.03;41.45;;;-1.00;99.90;;;;;;6127568;23;20071;-87
2022/03/03 01:59:23;;;;;;;90.93;40.05;;;-1.00;99.90;;;;;;6127046;23;20334;-86
2022/03/03 02:01:50;;;;;;;102.03;42.45;;;-1.00;99.90;;;;;;6126255;23;20032;-88
2022/03/03 02:04:35;;;;;;;;;;;;;;;;;;;;;
2022/03/03 02:07:01;;;;;;;72.80;31.60;;;-1.10;99.90;;;;;;6129172;23;20074;-87
2022/03/03 02:09:40;;;;;;;99.25;41.30;;;-1.20;99.90;;;;;;6127607;23;20018;-87
2022/03/03 02:12:06;;;;;;;92.05;41.00;;;-1.30;99.90;;;;;;6128014;23;20061;-86
2022/03/03 02:14:49;;;;;;;92.90;41.25;;;-1.30;99.90;;;;;;6127363;23;20514;-86
2022/03/03 02:17:22;;;;;;;99.75;42.25;;;-1.30;99.90;;;;;;6128016;23;20528;-87
2022/03/03 02:19:48;;;;;;;108.97;43.95;;;-1.10;99.90;;;;;;6103544;23;20021;-88
2022/03/03 02:22:30;;;;;;;;;;;;;;;;;;;;;
2022/03/03 02:24:58;;;;;;;100.60;42.65;;;-1.30;99.90;;;;;;6130351;23;20014;-87
2022/03/03 02:27:24;;;;;;;99.78;44.63;;;-1.20;99.90;;;;;;6152343;23;20022;-87
2022/03/03 02:29:54;;;;;;;103.13;41.58;;;-1.20;99.90;;;;;;6152242;23;20084;-88
2022/03/03 02:32:20;;;;;;;99.55;41.67;;;-1.30;99.90;;;;;;6152394;23;20030;-87
2022/03/03 02:34:49;;;;;;;97.88;41.60;;;-1.40;99.90;;;;;;6152213;23;20065;-88
2022/03/03 02:37:35;;;;;;;99.75;41.85;;;-1.30;99.90;;;;;;6152170;23;20092;-87
2022/03/03 02:40:20;;;;;;;102.13;42.60;;;-1.40;99.90;;;;;;6106726;23;20018;-87
2022/03/03 02:42:51;;;;;;;97.20;41.30;;;-1.40;99.90;;;;;;6127382;23;20476;-89
2022/03/03 02:45:20;;;;;;;95.90;39.88;;;-1.50;99.90;;;;;;6127997;23;20105;-89
2022/03/03 02:47:50;;;;;;;99.95;42.28;;;-1.60;99.90;;;;;;6127896;23;20039;-89
2022/03/03 02:50:21;;;;;;;93.53;40.90;;;-1.60;99.90;;;;;;6127799;23;20028;-87
2022/03/03 02:53:12;;;;;;;98.13;41.45;;;-1.60;99.90;;;;;;6127484;23;20076;-89
2022/03/03 02:55:43;;;;;;;103.47;42.47;;;-1.60;99.90;;;;;;6152652;23;20021;-87
2022/03/03 02:58:11;;;;;;;98.55;41.17;;;-1.60;99.90;;;;;;6126437;23;20014;-88
2022/03/03 03:00:43;;;;;;;92.70;40.78;;;-1.70;99.90;;;;;;6127706;23;20021;-87
2022/03/03 03:03:11;;;;;;;99.47;40.08;;;-1.70;99.90;;;;;;6152001;23;20581;-87
2022/03/03 03:05:57;;;;;;;98.32;38.70;;;-1.80;99.90;;;;;;6127772;23;20093;-87
2022/03/03 03:08:33;;;;;;;105.38;41.50;;;-1.80;99.90;;;;;;6127515;23;20076;-87
2022/03/03 03:10:59;;;;;;;88.78;39.20;;;-1.70;99.90;;;;;;6150924;23;20017;-87
2022/03/03 03:13:40;;;;;;;94.25;40.65;;;-1.80;99.90;;;;;;6126711;23;20026;-88
2022/03/03 03:16:08;;;;;;;95.57;42.00;;;-1.70;99.90;;;;;;6075348;23;20025;-87
2022/03/03 03:18:40;;;;;;;97.70;40.72;;;-1.80;99.90;;;;;;6075170;23;20081;-87
2022/03/03 03:21:25;;;;;;;106.35;43.95;;;-1.80;99.90;;;;;;6096301;23;20028;-86
2022/03/03 03:23:53;;;;;;;101.93;42.78;;;-1.90;99.90;;;;;;6097839;23;20029;-91
2022/03/03 03:26:19;;;;;;;99.68;41.40;;;-1.80;99.90;;;;;;6074493;23;20109;-87
2022/03/03 03:28:47;;;;;;;110.80;43.83;;;-1.70;99.90;;;;;;6073583;23;20124;-89
2022/03/03 03:31:13;;;;;;;98.60;42.25;;;-1.80;99.90;;;;;;6073712;23;20014;-86
2022/03/03 03:33:38;;;;;;;97.65;41.45;;;-1.80;99.90;;;;;;6074102;23;20018;-86
2022/03/03 03:36:06;;;;;;;101.20;42.45;;;-1.80;99.90;;;;;;6073519;23;20026;-86
2022/03/03 03:38:32;;;;;;;99.00;43.17;;;-1.80;99.90;;;;;;6073595;23;20014;-87
2022/03/03 03:41:10;;;;;;;;;;;;;;;;;;;;;
2022/03/03 03:43:36;;;;;;;101.28;41.80;;;-1.70;99.90;;;;;;6098216;23;20014;-86
2022/03/03 03:46:03;;;;;;;95.13;41.22;;;-1.70;99.90;;;;;;6049384;23;20101;-87
2022/03/03 03:48:49;;;;;;;96.28;40.58;;;-1.50;99.90;;;;;;6073709;23;20021;-87
2022/03/03 03:51:18;;;;;;;93.75;39.55;;;-1.60;99.90;;;;;;6074199;23;20022;-87
2022/03/03 03:53:44;;;;;;;91.80;39.33;;;-1.60;99.90;;;;;;6098475;23;20406;-87
2022/03/03 03:56:13;;;;;;;95.40;40.30;;;-1.70;99.90;;;;;;6074919;23;20021;-87
2022/03/03 03:58:41;;;;;;;99.50;41.85;;;-1.60;99.90;;;;;;6075885;23;20022;-87
2022/03/03 04:01:07;;;;;;;93.22;40.85;;;-1.60;99.90;;;;;;6075594;23;20017;-87
2022/03/03 04:03:35;;;;;;;94.03;42.55;;;-1.50;99.90;;;;;;6076231;23;20104;-87
2022/03/03 04:09:10;;;;;;;89.95;42.38;;;-1.30;99.90;;;;;;6045254;23;20026;-87
2022/03/03 04:11:54;;;;;;;94.05;42.00;;;-1.40;99.90;;;;;;6051676;23;20512;-87
2022/03/03 04:14:19;;;;;;;93.13;42.28;;;-1.30;99.90;;;;;;6062154;23;20029;-88
2022/03/03 04:16:58;;;;;;;87.93;40.65;;;-1.30;99.90;;;;;;6128662;23;20022;-86
2022/03/03 04:19:24;;;;;;;92.07;40.80;;;-1.30;99.90;;;;;;6105782;23;20025;-86
2022/03/03 04:21:52;;;;;;;84.82;41.50;;;-1.20;99.90;;;;;;6129601;23;20028;-88
2022/03/03 04:24:49;;;;;;;87.43;41.47;;;-1.20;99.90;;;;;;6129196;23;20271;-87
2022/03/03 04:27:14;;;;;;;87.45;40.28;;;-1.10;99.90;;;;;;6152655;23;20028;-88
2022/03/03 04:30:06;;;;;;;80.72;38.25;;;-1.00;99.90;;;;;;6128744;23;20469;-87
2022/03/03 04:32:35;;;;;;;79.88;38.28;;;-1.10;99.90;;;;;;6108985;23;20021;-88
2022/03/03 04:35:07;;;;;;;78.07;38.30;;;-1.00;99.90;;;;;;6128803;23;20033;-90
2022/03/03 04:37:36;;;;;;;81.70;38.15;;;-1.10;99.90;;;;;;6128186;23;20057;-88
2022/03/03 04:40:22;;;;;;;;;;;;;;;;;;;;;
2022/03/03 04:42:50;;;;;;;80.00;38.33;;;-1.20;99.90;;;;;;6147529;23;20025;-87
2022/03/03 04:45:16;;;;;;;80.85;38.25;;;-1.10;99.90;;;;;;6127670;23;20021;-87
2022/03/03 04:47:42;;;;;;;80.25;38.90;;;-1.20;99.90;;;;;;6127501;23;20021;-86
2022/03/03 04:50:15;;;;;;;81.03;37.35;;;-1.20;99.90;;;;;;6103171;23;20096;-86
2022/03/03 04:52:43;;;;;;;76.43;37.50;;;-1.20;99.90;;;;;;6128478;23;20096;-88
2022/03/03 04:55:10;;;;;;;79.38;37.45;;;-1.20;99.90;;;;;;6127078;23;20026;-87
2022/03/03 05:00:52;;;;;;;;;;;;;;;;;;;;;
2022/03/03 05:03:18;;;;;;;75.38;34.40;;;-1.50;99.90;;;;;;6130753;23;20017;-87
2022/03/03 05:05:44;;;;;;;78.25;37.05;;;-1.60;99.90;;;;;;6128432;23;20068;-86
2022/03/03 05:08:13;;;;;;;75.45;37.45;;;-1.70;99.90;;;;;;6128154;23;20434;-86
2022/03/03 05:10:41;;;;;;;72.30;33.58;;;-1.70;99.90;;;;;;6128329;23;20026;-86
2022/03/03 05:13:09;;;;;;;68.85;33.85;;;-1.80;99.90;;;;;;6127984;23;20021;-87
2022/03/03 05:15:50;;;;;;;70.78;33.38;;;-1.80;99.90;;;;;;6152130;23;20442;-86
2022/03/03 05:18:18;;;;;;;72.75;35.17;;;-1.90;99.90;;;;;;6127055;23;20013;-86
2022/03/03 05:20:54;;;;;;;70.40;33.65;;;-1.90;99.90;;;;;;6104118;23;20018;-86
2022/03/03 05:23:53;;;;;;;67.35;32.13;;;-1.90;99.90;;;;;;6103720;23;20444;-86
2022/03/03 05:26:31;;;;;;;;;;;;;;;;;;;;;
2022/03/03 05:28:59;;;;;;;69.78;32.03;;;-2.10;99.90;;;;;;6151975;23;20028;-86
2022/03/03 05:31:45;;;;;;;66.57;31.92;;;-2.20;99.90;;;;;;6127422;23;20326;-87
2022/03/03 05:34:24;;;;;;;54.13;25.95;;;-2.10;99.90;;;;;;6101933;23;20026;-87
2022/03/03 05:37:17;;;;;;;;;;;;;;;;;;;;;
2022/03/03 05:39:50;;;;;;;66.32;33.42;;;-2.20;99.90;;;;;;6152687;23;20092;-86
2022/03/03 05:42:18;;;;;;;65.85;33.20;;;-2.30;99.90;;;;;;6152743;23;20073;-87
2022/03/03 05:44:44;;;;;;;65.20;32.75;;;-2.30;99.90;;;;;;6128001;23;20032;-86
2022/03/03 05:47:14;;;;;;;69.88;33.92;;;-2.20;99.90;;;;;;6127886;23;20057;-88
2022/03/03 05:49:50;;;;;;;67.60;32.92;;;-2.30;99.90;;;;;;6127373;23;20083;-87
2022/03/03 05:52:16;;;;;;;67.32;33.08;;;-2.30;99.90;;;;;;6127864;23;20022;-88
2022/03/03 05:55:02;;;;;;;66.20;32.40;;;-2.30;99.90;;;;;;6103276;23;20024;-87
2022/03/03 05:57:50;;;;;;;71.43;33.05;;;-2.40;99.90;;;;;;6103547;23;20029;-86
2022/03/03 06:00:29;;;;;;;;;;;;;;;;;;;;;
2022/03/03 06:03:04;;;;;;;76.60;35.25;;;-2.50;99.90;;;;;;6153005;23;20053;-85
2022/03/03 06:05:41;;;;;;;80.13;37.30;;;-2.50;99.90;;;;;;6103679;23;20057;-86
2022/03/03 06:08:18;;;;;;;79.45;36.63;;;-2.50;99.90;;;;;;6128518;23;20021;-87
2022/03/03 06:11:07;;;;;;;73.20;35.22;;;-2.50;99.90;;;;;;6152205;23;20017;-87
2022/03/03 06:13:47;;;;;;;80.93;36.92;;;-2.40;99.90;;;;;;6126599;23;20017;-87
2022/03/03 06:16:20;;;;;;;77.75;36.97;;;-2.50;99.90;;;;;;6127413;23;20022;-86
2022/03/03 06:18:48;;;;;;;77.90;37.33;;;-2.50;99.90;;;;;;6127453;23;20017;-86
2022/03/03 06:21:16;;;;;;;77.22;36.72;;;-2.50;99.90;;;;;;6126360;23;20063;-85
2022/03/03 06:23:42;;;;;;;80.30;38.00;;;-2.50;99.90;;;;;;6125969;23;20021;-83
2022/03/03 06:26:15;;;;;;;78.68;37.47;;;-2.40;99.90;;;;;;6150556;23;20017;-83
2022/03/03 06:28:41;;;;;;;84.75;39.38;;;-2.40;99.90;;;;;;6125660;23;20448;-84
2022/03/03 06:31:07;;;;;;;83.60;39.83;;;-2.30;99.90;;;;;;6102377;23;20072;-84
2022/03/03 06:33:33;;;;;;;78.20;37.40;;;-2.20;99.90;;;;;;6125695;23;20021;-84
2022/03/03 06:36:00;;;;;;;82.35;36.72;;;-2.20;99.90;;;;;;6102685;23;20029;-85
2022/03/03 06:38:26;;;;;;;81.72;38.70;;;-2.20;99.90;;;;;;6125889;23;20040;-87
2022/03/03 06:40:54;;;;;;;75.18;36.55;;;-2.20;99.90;;;;;;6102540;23;20049;-85
2022/03/03 06:43:20;;;;;;;77.38;36.35;;;-2.20;99.90;;;;;;6127372;23;20341;-86
2022/03/03 06:45:46;;;;;;;69.38;35.47;;;-2.20;99.90;;;;;;6127825;23;20429;-85
2022/03/03 06:48:13;;;;;;;76.63;35.58;;;-2.20;99.90;;;;;;6103196;23;20017;-85
2022/03/03 06:50:42;;;;;;;73.78;37.97;;;-2.20;99.90;;;;;;6078508;23;20014;-85
2022/03/03 06:53:08;;;;;;;70.50;36.25;;;-2.10;99.90;;;;;;6151117;23;20667;-85
2022/03/03 06:55:38;;;;;;;79.22;36.47;;;-2.10;99.90;;;;;;6126497;23;20076;-84
2022/03/03 06:58:07;;;;;;;75.63;35.95;;;-2.00;99.90;;;;;;6126454;23;20096;-85
2022/03/03 07:00:34;;;;;;;74.55;36.38;;;-1.90;99.90;;;;;;6125718;23;20345;-85
2022/03/03 07:03:01;;;;;;;80.22;36.47;;;-2.00;99.90;;;;;;6127052;23;20018;-84
2022/03/03 07:05:30;;;;;;;74.13;37.55;;;-1.90;99.90;;;;;;6127001;23;20096;-84
2022/03/03 07:07:56;;;;;;;83.25;38.22;;;-2.00;99.90;;;;;;6127882;23;20013;-84
2022/03/03 07:10:25;;;;;;;73.68;36.25;;;-2.00;99.90;;;;;;6102361;23;20021;-87
2022/03/03 07:12:57;;;;;;;73.90;37.45;;;-2.00;99.90;;;;;;6127516;23;20413;-84
2022/03/03 07:15:25;;;;;;;77.85;37.08;;;-1.90;99.90;;;;;;6126742;23;20116;-87
2022/03/03 07:18:04;;;;;;;73.50;38.33;;;-2.00;99.90;;;;;;6127527;23;20057;-84
2022/03/03 07:20:41;;;;;;;81.40;39.35;;;-2.00;99.90;;;;;;6151847;23;20078;-85
2022/03/03 07:23:17;;;;;;;75.57;36.88;;;-1.90;99.90;;;;;;6128367;23;20017;-84
2022/03/03 07:25:51;;;;;;;72.75;36.88;;;-1.90;99.90;;;;;;6126603;23;20014;-85
2022/03/03 07:28:19;;;;;;;70.15;35.88;;;-1.70;99.90;;;;;;6126929;23;20014;-85
2022/03/03 07:30:49;;;;;;;73.18;36.08;;;-1.80;99.90;;;;;;6126991;23;20021;-85
2022/03/03 07:33:39;;;;;;;71.63;35.00;;;-1.60;99.90;;;;;;6129318;23;20075;-84
2022/03/03 07:36:08;;;;;;;65.68;34.58;;;-1.60;99.90;;;;;;6129032;23;20030;-85
2022/03/03 07:38:36;;;;;;;72.50;36.65;;;-1.60;99.90;;;;;;6153124;23;20021;-86
2022/03/03 07:41:03;;;;;;;71.22;36.08;;;-1.50;99.90;;;;;;6128721;23;20025;-85
2022/03/03 07:43:31;;;;;;;67.45;34.25;;;-1.50;99.90;;;;;;6128535;23;20626;-85
2022/03/03 07:45:57;;;;;;;71.40;35.78;;;-1.40;99.90;;;;;;6104662;23;20524;-84
2022/03/03 07:48:25;;;;;;;67.45;36.05;;;-1.20;99.90;;;;;;6104558;23;20055;-85
2022/03/03 07:50:54;;;;;;;69.38;35.95;;;-1.20;99.90;;;;;;6153277;23;20033;-85
2022/03/03 07:53:19;;;;;;;65.43;35.38;;;-1.00;99.90;;;;;;6129218;23;20017;-85
2022/03/03 07:55:55;;;;;;;65.05;34.45;;;-1.00;99.90;;;;;;6128366;23;20017;-86
2022/03/03 07:58:35;;;;;;;61.95;33.78;;;-0.80;99.90;;;;;;6128402;23;20025;-84
2022/03/03 08:01:03;;;;;;;65.72;34.63;;;-0.80;99.90;;;;;;6128138;23;20025;-84
2022/03/03 08:03:37;;;;;;;61.78;32.55;;;-0.50;99.90;;;;;;6127958;23;20100;-86
2022/03/03 08:06:05;;;;;;;62.75;33.10;;;-0.30;99.90;;;;;;6153512;23;20345;-85
2022/03/03 08:08:31;;;;;;;60.03;32.88;;;-0.40;99.90;;;;;;6128350;23;20095;-84
2022/03/03 08:11:07;;;;;;;62.03;32.95;;;-0.40;99.90;;;;;;6128819;23;20025;-85
2022/03/03 08:13:36;;;;;;;60.85;32.85;;;-0.40;99.90;;;;;;6128607;23;20349;-85
2022/03/03 08:16:03;;;;;;;60.00;33.45;;;-0.30;99.90;;;;;;6128071;23;20021;-85
2022/03/03 08:18:37;;;;;;;65.40;34.90;;;-0.20;99.90;;;;;;6128568;23;20049;-85
2022/03/03 08:21:06;;;;;;;61.55;33.45;;;-0.10;99.90;;;;;;6104725;23;20056;-85
2022/03/03 08:23:37;;;;;;;59.70;31.48;;;-0.10;99.90;;;;;;6127929;23;20017;-86
2022/03/03 08:26:06;;;;;;;56.88;32.00;;;0.00;99.90;;;;;;6128875;23;20542;-85
2022/03/03 08:28:35;;;;;;;61.38;32.08;;;0.10;99.90;;;;;;6128168;23;20435;-86
2022/03/03 08:31:12;;;;;;;58.13;32.42;;;0.10;99.90;;;;;;6152925;23;20025;-85
2022/03/03 08:33:41;;;;;;;58.53;32.42;;;0.20;99.90;;;;;;6128052;23;20025;-85
2022/03/03 08:36:45;;;;;;;58.90;31.45;;;0.30;99.90;;;;;;6128818;23;20025;-85
2022/03/03 08:39:16;;;;;;;57.47;31.27;;;0.40;99.90;;;;;;6151743;23;20021;-85
2022/03/03 08:41:45;;;;;;;55.80;31.10;;;0.50;99.90;;;;;;6127706;23;20023;-85
2022/03/03 08:44:17;;;;;;;57.95;30.98;;;0.60;99.90;;;;;;6128729;23;20449;-85
2022/03/03 08:46:47;;;;;;;56.85;29.88;;;0.60;99.90;;;;;;6152619;23;20021;-85
2022/03/03 08:49:16;;;;;;;59.33;30.55;;;0.80;99.90;;;;;;6128713;23;20018;-85
2022/03/03 08:51:45;;;;;;;50.72;29.13;;;0.80;99.90;;;;;;6128049;23;20021;-84
2022/03/03 08:54:28;;;;;;;53.03;29.15;;;0.90;99.90;;;;;;6153222;23;20022;-85
2022/03/03 08:56:54;;;;;;;50.35;28.25;;;1.00;99.90;;;;;;6127418;23;20024;-85
2022/03/03 08:59:25;;;;;;;48.72;28.08;;;1.10;99.90;;;;;;6128864;23;20108;-85
2022/03/03 09:01:54;;;;;;;48.63;27.95;;;1.10;99.90;;;;;;6104109;23;20029;-84
2022/03/03 09:04:22;;;;;;;51.15;28.77;;;1.30;99.90;;;;;;6153061;23;20025;-84
2022/03/03 09:06:48;;;;;;;50.58;28.02;;;1.40;99.90;;;;;;6128246;23;20079;-86
2022/03/03 09:09:14;;;;;;;47.47;27.33;;;1.50;99.90;;;;;;6128628;23;20009;-86
2022/03/03 09:11:44;;;;;;;44.33;26.30;;;1.60;99.90;;;;;;6103584;23;20024;-86
2022/03/03 09:14:17;;;;;;;45.03;26.17;;;1.70;99.90;;;;;;6104386;23;20021;-86
2022/03/03 09:16:46;;;;;;;43.35;24.83;;;1.70;99.90;;;;;;6153088;23;20021;-85
2022/03/03 09:19:14;;;;;;;48.42;25.77;;;1.80;99.90;;;;;;6152971;23;20560;-85
2022/03/03 09:21:45;;;;;;;39.42;23.58;;;1.90;99.90;;;;;;6103765;23;20032;-86
2022/03/03 09:24:28;;;;;;;40.22;23.23;;;2.00;99.90;;;;;;6105007;23;20330;-86
2022/03/03 09:26:56;;;;;;;35.80;23.30;;;2.10;99.90;;;;;;6130005;23;20013;-86
2022/03/03 09:29:26;;;;;;;38.15;24.75;;;2.30;99.90;;;;;;6128738;23;20017;-86
2022/03/03 09:31:56;;;;;;;36.97;22.50;;;2.40;99.90;;;;;;6152714;23;20022;-86
2022/03/03 09:34:28;;;;;;;37.40;22.05;;;2.50;99.90;;;;;;6128765;23;20041;-86
2022/03/03 09:36:57;;;;;;;35.78;21.88;;;2.60;99.90;;;;;;6128235;23;20033;-86
2022/03/03 09:39:25;;;;;;;34.75;20.73;;;2.70;99.90;;;;;;6128634;23;20029;-86
2022/03/03 09:41:56;;;;;;;35.08;20.95;;;2.90;99.90;;;;;;6103629;23;20126;-87
2022/03/03 09:44:29;;;;;;;33.08;20.30;;;3.00;99.90;;;;;;6153167;23;20036;-87
2022/03/03 09:46:58;;;;;;;36.08;21.17;;;3.20;99.90;;;;;;6127323;23;20022;-87
2022/03/03 09:49:26;;;;;;;31.15;20.20;;;3.30;99.90;;;;;;6152972;23;20022;-87
2022/03/03 09:52:01;;;;;;;36.92;21.65;;;3.40;99.90;;;;;;6128402;23;20065;-88
2022/03/03 09:54:27;;;;;;;33.10;20.92;;;3.60;99.90;;;;;;6128115;23;20373;-87
2022/03/03 09:56:58;;;;;;;29.67;19.30;;;3.60;99.90;;;;;;6128156;23;20060;-87
2022/03/03 09:59:34;;;;;;;33.78;19.95;;;3.80;99.90;;;;;;6105206;23;20096;-87
2022/03/03 10:02:08;;;;;;;31.45;20.55;;;4.00;99.90;;;;;;6105405;23;20457;-89
2022/03/03 10:04:35;;;;;;;31.73;20.00;;;4.10;99.90;;;;;;6128578;23;20030;-88
2022/03/03 10:07:08;;;;;;;38.35;21.08;;;4.30;99.90;;;;;;6102977;23;20025;-87
2022/03/03 10:12:30;;;;;;;32.45;19.25;;;4.60;99.90;;;;;;6131634;23;20022;-88
2022/03/03 10:15:00;;;;;;;28.70;18.25;;;5.00;99.90;;;;;;6127396;23;20057;-87
2022/03/03 10:17:38;;;;;;;29.05;18.58;;;5.10;99.90;;;;;;6128701;23;20025;-87
2022/03/03 10:20:14;;;;;;;29.60;19.15;;;5.20;98.00;;;;;;6103654;23;20048;-88
2022/03/03 10:22:47;;;;;;;29.75;19.27;;;5.40;99.70;;;;;;6127942;23;20060;-88
2022/03/03 10:25:55;;;;;;;29.27;17.52;;;5.60;99.20;;;;;;6128341;23;20025;-89
2022/03/03 10:28:37;;;;;;;25.73;16.88;;;5.90;97.00;;;;;;6128204;23;20055;-88
2022/03/03 10:31:04;;;;;;;26.85;16.70;;;6.10;95.30;;;;;;6082092;23;20022;-87
2022/03/03 10:33:46;;;;;;;25.40;17.13;;;6.30;95.40;;;;;;6128178;23;20021;-87
2022/03/03 10:36:24;;;;;;;29.25;16.75;;;6.50;92.90;;;;;;6152963;23;20017;-87
2022/03/03 10:38:55;;;;;;;23.90;15.75;;;6.60;94.10;;;;;;6127887;23;20445;-87
2022/03/03 10:41:46;;;;;;;25.25;16.50;;;6.80;92.60;;;;;;6153197;23;20040;-87
2022/03/03 10:44:24;;;;;;;23.52;15.85;;;7.00;90.00;;;;;;6129057;23;20072;-87
2022/03/03 10:47:31;;;;;;;26.38;16.90;;;7.10;91.30;;;;;;6127887;23;20080;-87
2022/03/03 10:50:08;;;;;;;24.70;16.90;;;7.20;88.30;;;;;;6107548;23;20468;-87
2022/03/03 10:52:40;;;;;;;24.33;15.63;;;7.50;90.50;;;;;;6104339;23;20028;-88
2022/03/03 10:55:17;;;;;;;25.58;16.55;;;7.50;89.40;;;;;;6128063;23;20024;-87
2022/03/03 10:57:58;;;;;;;25.20;16.50;;;7.60;85.80;;;;;;6127825;23;20475;-86
2022/03/03 11:00:30;;;;;;;21.67;15.07;;;7.70;85.50;;;;;;6128309;23;20060;-88
2022/03/03 11:03:09;;;;;;;22.73;15.32;;;7.70;85.30;;;;;;6152226;23;20013;-87
2022/03/03 11:05:35;;;;;;;23.02;14.77;;;7.80;84.50;;;;;;6129041;23;20021;-86
2022/03/03 11:08:07;;;;;;;22.35;15.35;;;7.90;84.20;;;;;;6129672;23;20037;-87
2022/03/03 11:10:35;;;;;;;23.58;15.63;;;8.10;83.60;;;;;;6130459;23;20021;-87
2022/03/03 11:13:14;;;;;;;23.23;16.10;;;8.30;83.20;;;;;;6105293;23;20033;-87
2022/03/03 11:16:04;;;;;;;25.90;15.98;;;8.40;82.20;;;;;;6129488;23;20033;-87
2022/03/03 11:18:40;;;;;;;25.23;16.48;;;8.50;78.00;;;;;;6154396;23;20028;-86
2022/03/03 11:21:15;;;;;;;27.55;16.95;;;8.50;81.80;;;;;;6129294;23;20021;-87
2022/03/03 11:23:56;;;;;;;23.05;15.63;;;8.60;81.80;;;;;;6130115;23;20591;-87
2022/03/03 11:26:52;;;;;;;30.73;18.73;;;8.70;78.80;;;;;;6130151;23;20107;-87
2022/03/03 11:29:25;;;;;;;26.75;18.00;;;8.70;77.10;;;;;;6130395;23;20018;-87
2022/03/03 11:32:15;;;;;;;27.35;18.13;;;8.70;79.20;;;;;;6129927;23;20079;-90
2022/03/03 11:34:46;;;;;;;26.15;18.05;;;8.80;75.30;;;;;;6108454;23;20026;-86
2022/03/03 11:37:24;;;;;;;23.70;16.45;;;8.80;78.60;;;;;;6129725;23;20518;-87
2022/03/03 11:39:57;;;;;;;24.42;16.02;;;8.80;76.10;;;;;;6105524;23;20342;-87
2022/03/03 11:42:53;;;;;;;24.85;17.38;;;8.90;75.80;;;;;;6155193;23;20452;-87
2022/03/03 11:45:27;;;;;;;25.77;17.17;;;9.00;74.20;;;;;;6154498;23;20021;-87
2022/03/03 11:48:15;;;;;;;26.88;18.17;;;9.00;77.70;;;;;;6129577;23;20028;-88
2022/03/03 11:50:49;;;;;;;27.63;18.95;;;9.10;75.80;;;;;;6154115;23;20021;-87
2022/03/03 11:53:19;;;;;;;28.70;19.17;;;9.30;76.30;;;;;;6105096;23;20060;-87
2022/03/03 11:56:00;;;;;;;31.98;18.27;;;9.40;77.20;;;;;;6129806;23;20389;-88
2022/03/03 11:59:10;;;;;;;25.63;17.30;;;9.50;75.20;;;;;;6129673;23;20441;-88
2022/03/03 12:01:56;;;;;;;24.40;16.45;;;9.50;72.90;;;;;;6129518;23;20057;-88
2022/03/03 12:04:25;;;;;;;24.67;17.00;;;9.70;74.20;;;;;;6104513;23;20021;-86
2022/03/03 12:06:54;;;;;;;22.70;15.48;;;9.70;76.10;;;;;;6105938;23;20032;-87
2022/03/03 12:09:38;;;;;;;24.67;16.98;;;9.90;74.70;;;;;;6104551;23;20021;-88
2022/03/03 12:12:24;;;;;;;25.55;17.48;;;9.90;71.70;;;;;;6131284;23;20017;-87
2022/03/03 12:14:56;;;;;;;28.63;17.47;;;10.00;72.20;;;;;;6129085;23;20021;-89
2022/03/03 12:17:54;;;;;;;25.80;18.42;;;10.10;73.10;;;;;;6128682;23;20264;-87
2022/03/03 12:20:35;;;;;;;30.73;17.98;;;10.10;72.50;;;;;;6128778;23;20018;-87
2022/03/03 12:23:16;;;;;;;25.73;17.90;;;10.20;72.30;;;;;;6128926;23;20074;-86
2022/03/03 12:25:58;;;;;;;26.55;18.05;;;10.30;70.80;;;;;;6130056;23;20037;-86
2022/03/03 12:28:47;;;;;;;26.80;17.27;;;10.30;69.30;;;;;;6129124;23;20096;-87
2022/03/03 12:31:49;;;;;;;30.17;18.15;;;10.40;67.70;;;;;;6153619;23;20021;-87
2022/03/03 12:34:26;;;;;;;26.42;17.90;;;10.40;68.70;;;;;;6122165;23;20026;-86
2022/03/03 12:36:55;;;;;;;26.10;17.00;;;10.40;70.00;;;;;;6129187;23;20017;-87
2022/03/03 12:39:33;;;;;;;31.83;20.40;;;10.50;70.30;;;;;;6104656;23;20025;-87
2022/03/03 12:41:59;;;;;;;26.13;17.42;;;10.70;70.10;;;;;;6128814;23;20091;-89
2022/03/03 12:44:36;;;;;;;24.63;17.60;;;10.70;69.10;;;;;;6129145;23;20457;-86
2022/03/03 12:47:07;;;;;;;23.88;17.48;;;10.80;69.10;;;;;;6128843;23;20023;-87
2022/03/03 12:49:48;;;;;;;25.77;17.05;;;10.90;68.80;;;;;;6128789;23;20341;-87
2022/03/03 12:52:26;;;;;;;23.48;16.45;;;11.00;66.60;;;;;;6153390;23;20699;-87
2022/03/03 12:54:53;;;;;;;26.70;17.33;;;11.10;66.30;;;;;;6128785;23;20022;-88
2022/03/03 12:57:35;;;;;;;27.80;17.42;;;11.10;66.60;;;;;;6128314;23;20385;-87
2022/03/03 13:00:18;;;;;;;23.00;16.10;;;11.10;65.40;;;;;;6128314;23;20025;-88
2022/03/03 13:03:07;;;;;;;24.75;17.50;;;11.20;65.30;;;;;;6128497;23;20029;-87
2022/03/03 13:05:47;;;;;;;24.45;17.23;;;11.30;65.10;;;;;;6134036;23;20022;-87
2022/03/03 13:08:48;;;;;;;26.00;17.73;;;11.50;66.80;;;;;;6152311;23;20093;-87
2022/03/03 13:11:18;;;;;;;23.50;16.98;;;11.60;65.50;;;;;;6128089;23;20021;-87
2022/03/03 13:13:56;;;;;;;25.52;17.00;;;11.60;65.20;;;;;;6128484;23;20450;-87
2022/03/03 13:16:26;;;;;;;23.33;16.85;;;11.70;64.50;;;;;;6128473;23;20545;-87
2022/03/03 13:18:56;;;;;;;22.70;15.65;;;11.70;65.40;;;;;;6128915;23;20467;-87
2022/03/03 13:24:26;;;;;;;21.02;15.20;;;11.90;61.80;;;;;;6132216;23;20053;-88
2022/03/03 13:26:58;;;;;;;19.25;13.73;;;11.90;62.60;;;;;;6128720;23;20024;-87
2022/03/03 13:29:36;;;;;;;19.92;13.52;;;12.20;62.40;;;;;;6127742;23;20017;-87
2022/03/03 13:32:16;;;;;;;14.57;10.77;;;12.60;61.00;;;;;;6128856;23;20057;-87
2022/03/03 13:34:46;;;;;;;15.13;10.75;;;13.10;55.60;;;;;;6128830;23;20028;-87
2022/03/03 13:37:18;;;;;;;16.38;12.57;;;13.70;56.20;;;;;;6128321;23;20028;-88
2022/03/03 13:39:46;;;;;;;20.98;15.10;;;14.50;53.40;;;;;;6153305;23;20033;-88